Time;durP1;ratioP1;P1;durP2;ratioP2;P2;SDS_P1;SDS_P2;PMS_P1;PMS_P2;Temp;Humidity;BMP_temperature;BMP_pressure;BME280_temperature;BME280_humidity;BME280_pressure;Samples;Min_cycle;Max_cycle;Signal;HPM_P1;HPM_P2
2022/08/20 00:00:49;;;;;;;17.23;15.23;;;19.90;99.90;;;;;;5089349;28;20055;-71
2022/08/20 00:03:16;;;;;;;16.67;14.05;;;19.90;99.90;;;;;;5108856;28;20039;-71
2022/08/20 00:05:48;;;;;;;16.42;14.80;;;19.90;99.90;;;;;;5106678;28;20039;-71
2022/08/20 00:08:14;;;;;;;15.65;14.07;;;19.90;99.90;;;;;;5091375;28;20412;-71
2022/08/20 00:10:43;;;;;;;17.52;14.20;;;19.90;99.90;;;;;;5104699;28;20043;-71
2022/08/20 00:13:12;;;;;;;19.73;15.73;;;19.80;99.90;;;;;;5090059;28;20086;-71
2022/08/20 00:15:38;;;;;;;16.92;14.60;;;19.80;99.90;;;;;;5079835;28;20048;-71
2022/08/20 00:18:05;;;;;;;17.45;13.98;;;19.80;99.90;;;;;;5077010;28;20046;-71
2022/08/20 00:20:34;;;;;;;18.38;13.77;;;19.80;99.90;;;;;;5084756;28;20061;-71
2022/08/20 00:23:00;;;;;;;24.98;16.17;;;19.70;99.90;;;;;;5107269;28;20049;-70
2022/08/20 00:25:27;;;;;;;18.83;13.18;;;19.70;99.90;;;;;;5086873;28;20503;-71
2022/08/20 00:27:54;;;;;;;20.27;15.35;;;19.70;99.90;;;;;;5101378;28;20061;-71
2022/08/20 00:30:21;;;;;;;18.17;14.33;;;19.70;99.90;;;;;;5089878;28;20039;-71
2022/08/20 00:32:53;;;;;;;19.05;13.98;;;19.70;99.90;;;;;;5108497;28;20320;-70
2022/08/20 00:35:26;;;;;;;16.02;13.60;;;19.70;99.90;;;;;;5086428;28;20396;-71
2022/08/20 00:37:53;;;;;;;18.88;13.93;;;19.60;99.90;;;;;;5087471;28;20039;-70
2022/08/20 00:40:23;;;;;;;17.13;14.43;;;19.60;99.90;;;;;;5085469;28;20044;-70
2022/08/20 00:42:52;;;;;;;20.63;13.90;;;19.60;99.90;;;;;;5103402;28;20561;-70
2022/08/20 00:45:19;;;;;;;17.00;13.82;;;19.60;99.90;;;;;;5106859;28;20051;-70
2022/08/20 00:47:46;;;;;;;17.00;13.93;;;19.60;99.90;;;;;;5080971;28;20044;-71
2022/08/20 00:50:15;;;;;;;13.85;12.05;;;19.60;99.90;;;;;;5088556;28;20665;-71
2022/08/20 00:52:43;;;;;;;16.42;14.27;;;19.50;99.90;;;;;;5106826;28;20107;-71
2022/08/20 00:55:11;;;;;;;15.68;14.00;;;19.50;99.90;;;;;;5106737;28;20043;-71
2022/08/20 00:57:39;;;;;;;;;;;19.50;99.90;;;;;;5100693;28;20623;-70
2022/08/20 01:00:12;;;;;;;17.45;13.65;;;19.40;99.90;;;;;;5099320;28;19924;-71
2022/08/20 01:02:38;;;;;;;15.30;12.30;;;19.40;99.90;;;;;;5087368;28;20527;-70
2022/08/20 01:05:08;;;;;;;20.35;13.32;;;19.40;99.90;;;;;;5106946;28;20198;-71
2022/08/20 01:07:35;;;;;;;17.90;12.73;;;19.40;99.90;;;;;;5107440;28;20047;-71
2022/08/20 01:10:25;;;;;;;16.05;13.48;;;19.30;99.90;;;;;;5104498;28;20052;-70
2022/08/20 01:12:52;;;;;;;22.00;13.45;;;19.30;99.90;;;;;;5101753;28;20075;-71
2022/08/20 01:15:21;;;;;;;15.23;12.10;;;19.30;99.90;;;;;;5104997;28;20514;-71
2022/08/20 01:17:49;;;;;;;14.73;11.60;;;19.30;99.90;;;;;;5108071;28;20278;-71
2022/08/20 01:20:32;;;;;;;16.00;12.00;;;19.30;99.90;;;;;;5107283;28;20515;-71
2022/08/20 01:26:03;;;;;;;15.23;12.87;;;19.30;99.90;;;;;;5095196;28;20048;-71
2022/08/20 01:28:42;;;;;;;14.15;12.80;;;19.30;99.90;;;;;;5109709;28;20116;-71
2022/08/20 01:31:12;;;;;;;19.83;13.73;;;19.20;99.90;;;;;;5097893;28;20052;-71
2022/08/20 01:33:38;;;;;;;16.00;12.68;;;19.20;99.90;;;;;;5104127;28;20174;-71
2022/08/20 01:36:05;;;;;;;16.50;13.05;;;19.20;99.90;;;;;;5087409;28;20039;-70
2022/08/20 01:38:32;;;;;;;19.05;11.98;;;19.20;99.90;;;;;;5110535;28;20051;-70
2022/08/20 01:41:17;;;;;;;14.50;11.90;;;19.20;99.90;;;;;;5111204;28;20122;-71
2022/08/20 01:43:49;;;;;;;15.23;12.45;;;19.20;99.90;;;;;;5074254;28;20079;-70
2022/08/20 01:46:16;;;;;;;15.30;12.10;;;19.20;99.90;;;;;;5092815;28;20082;-71
2022/08/20 01:48:43;;;;;;;15.75;11.63;;;19.20;99.90;;;;;;5111907;28;20061;-71
2022/08/20 01:51:24;;;;;;;17.38;13.48;;;19.10;99.90;;;;;;5111093;28;20118;-71
2022/08/20 01:53:52;;;;;;;16.73;11.45;;;19.10;99.90;;;;;;5109483;28;20040;-71
2022/08/20 01:56:22;;;;;;;18.00;12.18;;;19.10;99.90;;;;;;5093303;28;20463;-70
2022/08/20 01:58:51;;;;;;;16.42;12.07;;;19.10;99.90;;;;;;5107689;28;20052;-70
2022/08/20 02:01:35;;;;;;;17.25;12.38;;;19.10;99.90;;;;;;5111595;28;20055;-71
2022/08/20 02:04:03;;;;;;;20.63;12.68;;;19.00;99.90;;;;;;5110736;28;20432;-71
2022/08/20 02:06:32;;;;;;;20.77;13.30;;;19.00;99.90;;;;;;5110481;28;20048;-71
2022/08/20 02:09:00;;;;;;;14.80;13.30;;;19.00;99.90;;;;;;5092768;28;20054;-71
2022/08/20 02:11:27;;;;;;;21.55;12.90;;;18.90;99.90;;;;;;5097763;28;20418;-71
2022/08/20 02:13:56;;;;;;;17.08;12.82;;;18.90;99.90;;;;;;5083588;28;20051;-71
2022/08/20 02:16:28;;;;;;;14.57;13.07;;;18.90;99.90;;;;;;5108656;28;20051;-71
2022/08/20 02:18:58;;;;;;;19.08;13.60;;;18.80;99.90;;;;;;5110011;28;20130;-71
2022/08/20 02:21:27;;;;;;;17.60;13.07;;;18.80;99.90;;;;;;5111084;28;20126;-71
2022/08/20 02:23:53;;;;;;;21.73;12.55;;;18.80;99.90;;;;;;5084005;28;20121;-71
2022/08/20 02:26:19;;;;;;;19.45;12.85;;;18.80;99.90;;;;;;5097168;28;20040;-71
2022/08/20 02:28:49;;;;;;;29.65;16.60;;;18.80;99.90;;;;;;5098144;28;20032;-71
2022/08/20 02:31:17;;;;;;;19.58;12.80;;;18.70;99.90;;;;;;5089917;28;20466;-71
2022/08/20 02:33:43;;;;;;;15.75;12.23;;;18.70;99.90;;;;;;5106973;28;20039;-71
2022/08/20 02:36:11;;;;;;;20.73;12.50;;;18.70;99.90;;;;;;5104777;28;20032;-71
2022/08/20 02:38:38;;;;;;;17.95;12.30;;;18.70;99.90;;;;;;5106190;28;20088;-72
2022/08/20 02:41:05;;;;;;;21.83;12.98;;;18.60;99.90;;;;;;5091721;28;20048;-72
2022/08/20 02:43:30;;;;;;;20.60;10.20;;;18.60;99.90;;;;;;5091629;28;20394;-71
2022/08/20 02:45:58;;;;;;;15.50;10.65;;;18.60;99.90;;;;;;5085349;28;20051;-71
2022/08/20 02:48:24;;;;;;;15.20;10.48;;;18.60;99.90;;;;;;5087474;28;20054;-71
2022/08/20 02:51:03;;;;;;;12.88;10.63;;;18.60;99.90;;;;;;5110284;28;20048;-71
2022/08/20 02:53:34;;;;;;;18.58;11.13;;;18.50;99.90;;;;;;5092049;28;20074;-71
2022/08/20 02:55:59;;;;;;;14.07;10.52;;;18.50;99.90;;;;;;5092229;28;20048;-71
2022/08/20 02:58:26;;;;;;;13.75;11.23;;;18.50;99.90;;;;;;5087641;28;20064;-71
2022/08/20 03:00:52;;;;;;;25.92;10.63;;;18.50;99.90;;;;;;5087641;28;20145;-71
2022/08/20 03:03:22;;;;;;;15.57;11.23;;;18.40;99.90;;;;;;5087496;28;20048;-71
2022/08/20 03:05:51;;;;;;;15.30;11.00;;;18.40;99.90;;;;;;5088771;28;20047;-71
2022/08/20 03:08:17;;;;;;;19.65;11.82;;;18.40;99.90;;;;;;5088318;28;20051;-71
2022/08/20 03:10:45;;;;;;;27.77;11.73;;;18.40;99.90;;;;;;5088358;28;20040;-71
2022/08/20 03:13:12;;;;;;;14.95;10.40;;;18.40;99.90;;;;;;5087625;28;20047;-71
2022/08/20 03:15:47;;;;;;;16.47;10.67;;;18.30;99.90;;;;;;5083126;28;20047;-70
2022/08/20 03:18:14;;;;;;;18.00;9.93;;;18.30;99.90;;;;;;5085778;28;20073;-69
2022/08/20 03:20:40;;;;;;;12.05;9.80;;;18.30;99.90;;;;;;5087775;28;20051;-69
2022/08/20 03:23:06;;;;;;;17.65;9.93;;;18.30;99.90;;;;;;5087310;28;20055;-70
2022/08/20 03:25:32;;;;;;;18.10;11.13;;;18.20;99.90;;;;;;5080552;28;20539;-70
2022/08/20 03:27:58;;;;;;;19.35;9.98;;;18.20;99.90;;;;;;5086174;28;20043;-70
2022/08/20 03:30:26;;;;;;;14.63;10.43;;;18.10;99.90;;;;;;5080354;28;20033;-69
2022/08/20 03:32:52;;;;;;;14.80;10.02;;;18.10;99.90;;;;;;5077230;28;20059;-70
2022/08/20 03:35:19;;;;;;;19.13;10.45;;;18.10;99.90;;;;;;5087196;28;20560;-69
2022/08/20 03:37:45;;;;;;;24.77;11.25;;;18.10;99.90;;;;;;5082511;28;20119;-70
2022/08/20 03:40:15;;;;;;;11.90;9.55;;;18.00;99.90;;;;;;5088692;28;20100;-70
2022/08/20 03:42:41;;;;;;;16.10;11.00;;;18.00;99.90;;;;;;5084487;28;20065;-70
2022/08/20 03:45:09;;;;;;;15.45;9.40;;;18.00;99.90;;;;;;5087334;28;20512;-70
2022/08/20 03:47:35;;;;;;;16.67;10.45;;;18.00;99.90;;;;;;5085807;28;20048;-71
2022/08/20 03:50:03;;;;;;;12.52;9.15;;;18.00;99.90;;;;;;5079986;28;20041;-72
2022/08/20 03:52:29;;;;;;;;;;;17.90;99.90;;;;;;5087872;28;20056;-72
2022/08/20 03:54:55;;;;;;;17.02;9.60;;;17.90;99.90;;;;;;5086170;28;19998;-71
2022/08/20 03:57:21;;;;;;;15.43;9.60;;;17.90;99.90;;;;;;5085220;28;20047;-72
2022/08/20 03:59:47;;;;;;;19.85;11.45;;;17.90;99.90;;;;;;5102530;28;20411;-72
2022/08/20 04:02:13;;;;;;;14.60;11.10;;;17.90;99.90;;;;;;5098355;28;20079;-71
2022/08/20 04:04:40;;;;;;;17.35;11.68;;;17.80;99.90;;;;;;5086946;28;20181;-71
2022/08/20 04:07:24;;;;;;;16.10;11.60;;;17.80;99.90;;;;;;5089986;28;20047;-72
2022/08/20 04:09:55;;;;;;;17.70;9.95;;;17.80;99.90;;;;;;5088416;28;20039;-72
2022/08/20 04:12:22;;;;;;;15.52;10.20;;;17.80;99.90;;;;;;5104132;28;20118;-72
2022/08/20 04:14:49;;;;;;;19.90;9.55;;;17.70;99.90;;;;;;5087632;28;20539;-71
2022/08/20 04:17:18;;;;;;;14.65;9.95;;;17.70;99.90;;;;;;5089856;28;20110;-71
2022/08/20 04:19:44;;;;;;;15.88;10.73;;;17.60;99.90;;;;;;5090135;28;20119;-71
2022/08/20 04:22:12;;;;;;;11.43;9.13;;;17.70;99.90;;;;;;5107722;28;20107;-71
2022/08/20 04:24:39;;;;;;;25.45;10.65;;;17.60;99.90;;;;;;5089918;28;20416;-71
2022/08/20 04:27:05;;;;;;;12.00;9.18;;;17.60;99.90;;;;;;5089539;28;20055;-72
2022/08/20 04:29:32;;;;;;;20.08;11.30;;;17.60;99.90;;;;;;5108346;28;20039;-72
2022/08/20 04:31:59;;;;;;;11.55;9.75;;;17.50;99.90;;;;;;5083578;27;20051;-71
2022/08/20 04:34:25;;;;;;;17.63;9.75;;;17.50;99.90;;;;;;5083980;28;20039;-71
2022/08/20 04:36:50;;;;;;;17.08;10.63;;;17.50;99.90;;;;;;5107718;28;20043;-72
2022/08/20 04:39:16;;;;;;;17.15;10.13;;;17.40;99.90;;;;;;5100067;28;21442;-72
2022/08/20 04:41:42;;;;;;;21.63;9.45;;;17.40;99.90;;;;;;5102908;27;20419;-72
2022/08/20 04:44:09;;;;;;;20.08;10.15;;;17.40;99.90;;;;;;5109615;27;20043;-72
2022/08/20 04:46:37;;;;;;;18.77;10.23;;;17.40;99.90;;;;;;5107090;28;20039;-72
2022/08/20 04:49:05;;;;;;;13.45;9.00;;;17.40;99.90;;;;;;5094314;28;20783;-72
2022/08/20 04:51:32;;;;;;;14.55;9.23;;;17.40;99.90;;;;;;5107150;28;20036;-71
2022/08/20 04:54:01;;;;;;;12.77;8.68;;;17.40;99.90;;;;;;5108170;28;20094;-71
2022/08/20 04:56:29;;;;;;;18.38;9.05;;;17.40;99.90;;;;;;5076620;28;20753;-72
2022/08/20 04:58:59;;;;;;;12.82;8.23;;;17.40;99.90;;;;;;5106748;28;20090;-72
2022/08/20 05:01:25;;;;;;;12.40;8.18;;;17.40;99.90;;;;;;5107332;28;20039;-72
2022/08/20 05:03:55;;;;;;;19.58;8.55;;;17.40;99.90;;;;;;5087598;28;20048;-71
2022/08/20 05:06:23;;;;;;;11.75;7.13;;;17.30;99.90;;;;;;5079403;28;20405;-72
2022/08/20 05:08:49;;;;;;;16.60;8.45;;;17.30;99.90;;;;;;5103745;28;20047;-71
2022/08/20 05:11:15;;;;;;;14.82;7.93;;;17.30;99.90;;;;;;5104418;27;20038;-72
2022/08/20 05:13:41;;;;;;;15.38;7.38;;;17.30;99.90;;;;;;5082562;28;20036;-71
2022/08/20 05:16:08;;;;;;;15.40;8.35;;;17.30;99.90;;;;;;5102904;28;20779;-71
2022/08/20 05:18:34;;;;;;;13.55;8.30;;;17.30;99.90;;;;;;5098404;28;20035;-72
2022/08/20 05:21:07;;;;;;;8.70;6.82;;;17.30;99.90;;;;;;5104213;27;20066;-71
2022/08/20 05:23:35;;;;;;;17.20;8.55;;;17.30;99.90;;;;;;5104728;28;20048;-71
2022/08/20 05:26:06;;;;;;;10.80;7.45;;;17.30;99.90;;;;;;5108572;28;20046;-71
2022/08/20 05:28:32;;;;;;;13.98;6.78;;;17.20;99.90;;;;;;5109371;28;20434;-71
2022/08/20 05:31:01;;;;;;;10.48;7.90;;;17.20;99.90;;;;;;5081212;28;20056;-71
2022/08/20 05:33:28;;;;;;;14.05;7.00;;;17.20;99.90;;;;;;5092839;28;20047;-71
2022/08/20 05:35:55;;;;;;;14.52;7.82;;;17.20;99.90;;;;;;5075355;28;20048;-71
2022/08/20 05:38:27;;;;;;;9.63;6.88;;;17.20;99.90;;;;;;5110681;28;20071;-71
2022/08/20 05:40:52;;;;;;;9.73;6.60;;;17.20;99.90;;;;;;5110701;28;20107;-71
2022/08/20 05:43:19;;;;;;;9.25;6.68;;;17.10;99.90;;;;;;5092573;28;20928;-72
2022/08/20 05:45:46;;;;;;;11.32;7.40;;;17.20;99.90;;;;;;5093612;28;20067;-71
2022/08/20 05:48:16;;;;;;;10.75;7.43;;;17.10;99.90;;;;;;5076588;28;20408;-71
2022/08/20 05:50:44;;;;;;;10.85;6.93;;;17.20;99.90;;;;;;5091922;28;20089;-71
2022/08/20 05:53:09;;;;;;;;;;;17.10;99.90;;;;;;5093676;28;20385;-71
2022/08/20 05:55:36;;;;;;;12.30;6.43;;;17.10;99.90;;;;;;5092029;28;19927;-71
2022/08/20 05:58:04;;;;;;;15.05;7.45;;;17.10;99.90;;;;;;5110209;28;20289;-71
2022/08/20 06:00:32;;;;;;;13.13;7.70;;;17.10;99.90;;;;;;5109416;28;20510;-71
2022/08/20 06:05:43;;;;;;;10.35;7.47;;;17.10;99.90;;;;;;5092768;28;20294;-70
2022/08/20 06:08:10;;;;;;;10.38;7.18;;;17.20;99.90;;;;;;5091860;28;20104;-71
2022/08/20 06:10:37;;;;;;;14.52;7.30;;;17.10;99.90;;;;;;5109632;28;20070;-71
2022/08/20 06:13:03;;;;;;;10.73;7.65;;;17.10;99.90;;;;;;5093161;28;20043;-71
2022/08/20 06:15:30;;;;;;;12.40;7.35;;;17.20;99.90;;;;;;5099665;28;20487;-71
2022/08/20 06:17:56;;;;;;;10.98;7.90;;;17.20;99.90;;;;;;5107411;28;20552;-71
2022/08/20 06:20:23;;;;;;;17.95;7.80;;;17.30;99.90;;;;;;5110704;28;20487;-71
2022/08/20 06:22:49;;;;;;;8.32;7.13;;;17.30;99.90;;;;;;5062766;28;20146;-71
2022/08/20 06:25:14;;;;;;;11.40;6.15;;;17.30;99.90;;;;;;5108635;28;20132;-71
2022/08/20 06:27:41;;;;;;;12.55;7.13;;;17.30;99.90;;;;;;5083632;28;20055;-71
2022/08/20 06:30:10;;;;;;;12.48;7.43;;;17.40;99.90;;;;;;5090631;28;20048;-71
2022/08/20 06:32:36;;;;;;;10.05;7.55;;;17.50;99.90;;;;;;5092186;28;20048;-70
2022/08/20 06:35:04;;;;;;;13.80;8.25;;;17.50;99.90;;;;;;5106164;28;20062;-71
2022/08/20 06:37:31;;;;;;;14.02;7.00;;;17.60;99.90;;;;;;5105936;28;20500;-71
2022/08/20 06:40:02;;;;;;;12.25;7.35;;;17.60;99.90;;;;;;5090093;28;20066;-71
2022/08/20 06:42:28;;;;;;;15.27;6.53;;;17.60;99.90;;;;;;5087617;28;20035;-71
2022/08/20 06:44:55;;;;;;;13.18;6.75;;;17.70;99.90;;;;;;5077874;28;20056;-69
2022/08/20 06:47:20;;;;;;;10.77;5.82;;;17.80;99.90;;;;;;5104439;28;20104;-71
2022/08/20 06:49:47;;;;;;;13.65;7.18;;;17.90;99.90;;;;;;5105456;28;20051;-71
2022/08/20 06:52:15;;;;;;;8.60;5.72;;;18.00;99.90;;;;;;5075191;28;20058;-70
2022/08/20 06:54:42;;;;;;;13.63;6.30;;;18.10;99.90;;;;;;5090568;28;20051;-71
2022/08/20 06:57:08;;;;;;;11.23;6.70;;;18.10;99.90;;;;;;5104037;28;20404;-71
2022/08/20 06:59:34;;;;;;;12.23;6.18;;;18.40;99.90;;;;;;5098127;28;20141;-71
2022/08/20 07:01:59;;;;;;;11.82;5.43;;;18.50;99.90;;;;;;5090392;28;20056;-71
2022/08/20 07:04:25;;;;;;;9.07;5.22;;;18.60;99.90;;;;;;5108895;28;20092;-71
2022/08/20 07:06:56;;;;;;;16.90;6.13;;;18.70;99.90;;;;;;5090426;28;20393;-71
2022/08/20 07:09:23;;;;;;;12.23;5.45;;;18.90;99.90;;;;;;5106063;28;20086;-71
2022/08/20 07:11:49;;;;;;;8.40;5.32;;;19.00;99.90;;;;;;5089117;28;20089;-70
2022/08/20 07:14:17;;;;;;;10.13;5.22;;;19.00;99.90;;;;;;5109280;28;20040;-71
2022/08/20 07:16:43;;;;;;;6.88;4.60;;;19.10;99.90;;;;;;5091285;28;20108;-70
2022/08/20 07:19:09;;;;;;;8.35;4.70;;;19.20;99.90;;;;;;5090455;28;20043;-71
2022/08/20 07:21:35;;;;;;;8.23;4.53;;;19.30;99.90;;;;;;5089922;28;20166;-71
2022/08/20 07:24:02;;;;;;;8.50;4.57;;;19.30;99.90;;;;;;5074219;28;20095;-71
2022/08/20 07:26:27;;;;;;;6.28;4.15;;;19.30;99.90;;;;;;5107326;27;20140;-70
2022/08/20 07:28:54;;;;;;;8.82;3.92;;;19.30;99.90;;;;;;5093197;28;20516;-70
2022/08/20 07:34:05;;;;;;;13.80;5.28;;;19.60;99.90;;;;;;5114491;27;20404;-70
2022/08/20 07:36:31;;;;;;;12.18;4.45;;;19.80;99.90;;;;;;5090053;28;20043;-70
2022/08/20 07:38:57;;;;;;;11.90;4.85;;;19.90;99.90;;;;;;5104821;28;20118;-70
2022/08/20 07:41:23;;;;;;;15.75;5.10;;;20.30;99.90;;;;;;5108242;28;20126;-70
2022/08/20 07:43:48;;;;;;;6.55;3.72;;;20.60;99.90;;;;;;5106578;28;20043;-70
2022/08/20 07:46:16;;;;;;;9.88;4.13;;;20.90;99.90;;;;;;5107164;28;20085;-70
2022/08/20 07:48:45;;;;;;;;;;;20.90;99.90;;;;;;5088709;28;20134;-70
2022/08/20 07:51:13;;;;;;;9.70;3.40;;;20.90;99.90;;;;;;5107108;28;20022;-70
2022/08/20 07:53:40;;;;;;;11.60;3.63;;;20.90;99.90;;;;;;5108284;28;20086;-69
2022/08/20 07:56:08;;;;;;;15.13;3.17;;;21.00;99.90;;;;;;5069679;28;20048;-69
2022/08/20 07:58:35;;;;;;;6.97;2.92;;;20.90;99.90;;;;;;5104826;28;20052;-69
2022/08/20 08:01:02;;;;;;;9.35;3.88;;;20.90;99.90;;;;;;5108273;28;20099;-69
2022/08/20 08:03:28;;;;;;;4.40;2.60;;;20.90;99.90;;;;;;5106899;27;20446;-69
2022/08/20 08:05:55;;;;;;;6.47;2.80;;;21.00;99.90;;;;;;5107094;28;20063;-69
2022/08/20 08:08:24;;;;;;;6.00;3.33;;;21.00;99.90;;;;;;5106955;28;20035;-69
2022/08/20 08:10:56;;;;;;;7.43;3.13;;;21.10;99.90;;;;;;5106007;28;20050;-68
2022/08/20 08:13:25;;;;;;;7.72;3.25;;;21.30;99.90;;;;;;5105965;28;20043;-68
2022/08/20 08:15:53;;;;;;;7.53;2.90;;;21.50;99.90;;;;;;5106932;28;20123;-68
2022/08/20 08:18:23;;;;;;;13.73;3.25;;;21.90;99.90;;;;;;5083495;28;20097;-68
2022/08/20 08:20:52;;;;;;;7.68;2.88;;;22.10;99.90;;;;;;5098719;28;20058;-68
2022/08/20 08:23:19;;;;;;;9.70;2.72;;;22.30;99.90;;;;;;5105888;28;20054;-67
2022/08/20 08:25:45;;;;;;;10.23;3.03;;;22.40;99.90;;;;;;5070732;28;20055;-68
2022/08/20 08:28:14;;;;;;;10.40;3.33;;;22.60;99.90;;;;;;5106757;28;20120;-68
2022/08/20 08:30:42;;;;;;;9.95;3.13;;;22.90;99.90;;;;;;5107678;28;20192;-68
2022/08/20 08:33:31;;;;;;;5.65;2.53;;;22.90;99.90;;;;;;5105955;28;20054;-68
2022/08/20 08:36:10;;;;;;;6.85;2.90;;;23.20;99.90;;;;;;5103765;28;20485;-68
2022/08/20 08:38:38;;;;;;;4.00;1.70;;;23.10;99.90;;;;;;5103737;28;20569;-68
2022/08/20 08:41:12;;;;;;;;;;;23.30;99.90;;;;;;5103766;28;20051;-69
2022/08/20 08:43:38;;;;;;;7.60;2.90;;;23.40;99.90;;;;;;5104782;28;19926;-68
2022/08/20 08:46:05;;;;;;;12.20;2.28;;;23.60;99.90;;;;;;5101093;28;20926;-68
2022/08/20 08:48:36;;;;;;;9.88;3.40;;;23.80;99.90;;;;;;5106540;28;20114;-69
2022/08/20 08:51:05;;;;;;;14.43;2.92;;;24.10;99.90;;;;;;5100851;28;20088;-69
2022/08/20 08:53:37;;;;;;;5.88;2.25;;;24.20;99.90;;;;;;5087739;28;20038;-69
2022/08/20 08:56:05;;;;;;;5.22;2.10;;;24.40;99.90;;;;;;5101361;28;20040;-69
2022/08/20 08:58:32;;;;;;;4.85;2.22;;;24.60;99.90;;;;;;5106309;28;20070;-70
2022/08/20 09:01:02;;;;;;;8.45;2.80;;;24.70;99.90;;;;;;5107566;28;20074;-70
2022/08/20 09:03:32;;;;;;;12.70;1.75;;;24.60;99.90;;;;;;5069799;28;20050;-70
2022/08/20 09:06:00;;;;;;;7.85;2.35;;;24.90;99.90;;;;;;5096388;28;20043;-70
2022/08/20 09:08:48;;;;;;;3.33;1.95;;;25.00;99.90;;;;;;5099310;28;20048;-70
2022/08/20 09:11:15;;;;;;;7.43;1.92;;;25.00;99.90;;;;;;5105803;28;20122;-70
2022/08/20 09:13:42;;;;;;;7.03;2.28;;;24.90;99.90;;;;;;5106989;28;20488;-70
2022/08/20 09:16:08;;;;;;;10.35;2.08;;;24.90;99.90;;;;;;5093127;28;20657;-71
2022/08/20 09:18:33;;;;;;;6.40;2.58;;;25.00;99.90;;;;;;5091808;28;20036;-71
2022/08/20 09:20:59;;;;;;;5.05;2.17;;;24.80;99.90;;;;;;5106523;28;20053;-71
2022/08/20 09:23:25;;;;;;;5.18;1.55;;;25.10;99.90;;;;;;5082804;28;20672;-70
2022/08/20 09:25:51;;;;;;;2.92;2.00;;;25.20;99.90;;;;;;5099369;28;20062;-72
2022/08/20 09:28:16;;;;;;;6.05;1.85;;;25.40;99.90;;;;;;5077164;28;20043;-72
2022/08/20 09:30:42;;;;;;;8.48;2.38;;;25.60;99.90;;;;;;5079980;28;20471;-72
2022/08/20 09:33:08;;;;;;;5.63;1.85;;;25.70;99.90;;;;;;5082647;28;20059;-73
2022/08/20 09:35:33;;;;;;;6.05;2.17;;;25.80;99.90;;;;;;5078482;28;20047;-73
2022/08/20 09:38:00;;;;;;;4.43;1.77;;;25.80;99.90;;;;;;5079084;28;20036;-73
2022/08/20 09:40:25;;;;;;;6.05;2.05;;;25.90;99.90;;;;;;5086576;28;20714;-73
2022/08/20 09:42:51;;;;;;;9.38;1.95;;;25.70;99.60;;;;;;5086010;28;20083;-72
2022/08/20 09:45:18;;;;;;;3.30;1.88;;;25.50;98.10;;;;;;5085287;28;20051;-72
2022/08/20 09:47:43;;;;;;;6.53;2.43;;;25.70;99.90;;;;;;5104714;28;20146;-72
2022/08/20 09:50:09;;;;;;;11.82;2.03;;;25.70;99.90;;;;;;5103478;28;20114;-72
2022/08/20 09:52:40;;;;;;;7.18;2.50;;;25.60;99.90;;;;;;5104801;28;20500;-71
2022/08/20 09:55:12;;;;;;;3.47;2.53;;;25.50;95.60;;;;;;5101601;28;20040;-71
2022/08/20 09:57:38;;;;;;;6.55;2.45;;;25.50;82.90;;;;;;5108581;28;20040;-71
2022/08/20 10:00:12;;;;;;;6.65;2.47;;;25.60;94.60;;;;;;5093486;28;20456;-70
2022/08/20 10:02:39;;;;;;;5.85;2.63;;;25.60;89.00;;;;;;5103222;28;20083;-71
2022/08/20 10:05:05;;;;;;;6.33;2.10;;;25.60;91.60;;;;;;5070544;28;20587;-71
2022/08/20 10:07:33;;;;;;;10.38;3.10;;;25.50;83.20;;;;;;5091417;28;20028;-71
2022/08/20 10:09:59;;;;;;;5.43;2.72;;;25.70;90.80;;;;;;5109695;28;20048;-71
2022/08/20 10:12:25;;;;;;;8.30;2.42;;;25.70;82.10;;;;;;5101859;28;20036;-71
2022/08/20 10:14:51;;;;;;;4.80;2.03;;;25.80;89.60;;;;;;5081355;28;20059;-71
2022/08/20 10:17:16;;;;;;;7.22;2.15;;;25.80;89.30;;;;;;5108599;28;20038;-71
2022/08/20 10:19:42;;;;;;;2.95;1.67;;;26.00;82.10;;;;;;5080326;28;20138;-71
2022/08/20 10:22:08;;;;;;;7.13;2.70;;;26.00;86.60;;;;;;5070010;28;20051;-71
2022/08/20 10:24:34;;;;;;;7.97;2.85;;;26.10;93.20;;;;;;5086500;28;20396;-71
2022/08/20 10:27:00;;;;;;;4.72;2.28;;;26.10;91.60;;;;;;5074948;28;20085;-71
2022/08/20 10:29:27;;;;;;;9.77;2.83;;;25.90;83.40;;;;;;5109658;28;20074;-71
2022/08/20 10:31:55;;;;;;;6.00;2.50;;;25.70;90.00;;;;;;5089159;28;20108;-72
2022/08/20 10:34:22;;;;;;;6.25;2.95;;;25.70;95.10;;;;;;5086441;28;20056;-71
2022/08/20 10:36:48;;;;;;;5.57;2.25;;;25.60;91.60;;;;;;5108593;28;20049;-71
2022/08/20 10:39:14;;;;;;;9.50;3.15;;;25.50;95.00;;;;;;5108281;28;20028;-71
2022/08/20 10:41:40;;;;;;;7.57;3.10;;;25.60;85.90;;;;;;5106200;28;20051;-71
2022/08/20 10:44:06;;;;;;;7.05;3.67;;;25.40;81.20;;;;;;5105283;28;20113;-71
2022/08/20 10:46:32;;;;;;;4.38;2.67;;;25.40;76.30;;;;;;5106802;28;20068;-71
2022/08/20 10:48:59;;;;;;;5.75;2.70;;;25.40;80.80;;;;;;5074184;28;20181;-71
2022/08/20 10:51:25;;;;;;;9.87;3.27;;;25.20;79.80;;;;;;5089380;28;20048;-71
2022/08/20 10:53:50;;;;;;;5.93;2.70;;;25.20;83.70;;;;;;5105575;28;20039;-71
2022/08/20 10:56:16;;;;;;;6.40;2.60;;;25.00;80.50;;;;;;5090964;28;20494;-71
2022/08/20 10:58:42;;;;;;;5.30;2.28;;;25.00;80.50;;;;;;5089391;28;20500;-71
2022/08/20 11:01:08;;;;;;;5.30;2.10;;;25.20;90.50;;;;;;5081685;28;20055;-71
2022/08/20 11:03:34;;;;;;;11.25;2.60;;;25.20;88.30;;;;;;5072323;28;20570;-71
2022/08/20 11:06:00;;;;;;;5.25;2.88;;;25.20;77.90;;;;;;5096961;28;20055;-71
2022/08/20 11:08:25;;;;;;;5.47;2.83;;;25.10;79.10;;;;;;5085837;28;20159;-71
2022/08/20 11:10:51;;;;;;;8.13;2.58;;;24.90;72.60;;;;;;5081993;28;20476;-71
2022/08/20 11:13:17;;;;;;;5.18;2.83;;;24.90;72.00;;;;;;5090038;28;20739;-71
2022/08/20 11:15:43;;;;;;;5.85;2.58;;;25.20;73.00;;;;;;5101407;28;20126;-71
2022/08/20 11:18:10;;;;;;;4.35;2.80;;;25.30;68.10;;;;;;5090728;28;20036;-72
2022/08/20 11:20:36;;;;;;;5.30;2.35;;;25.20;67.90;;;;;;5108121;28;20047;-71
2022/08/20 11:23:02;;;;;;;8.90;2.58;;;25.40;68.10;;;;;;5082719;28;20040;-71
2022/08/20 11:25:28;;;;;;;12.10;2.83;;;25.60;67.50;;;;;;5109107;27;20035;-73
2022/08/20 11:27:55;;;;;;;6.38;2.47;;;25.70;72.00;;;;;;5090987;28;20420;-71
2022/08/20 11:30:34;;;;;;;5.63;3.13;;;26.00;71.30;;;;;;5085569;28;20106;-71
2022/08/20 11:33:00;;;;;;;8.98;3.00;;;26.10;65.10;;;;;;5106967;28;20042;-71
2022/08/20 11:35:28;;;;;;;10.60;2.92;;;26.20;65.00;;;;;;5108997;28;20031;-71
2022/08/20 11:37:55;;;;;;;;;;;26.30;64.40;;;;;;5100663;28;20096;-71
2022/08/20 11:40:21;;;;;;;9.32;3.53;;;26.20;58.70;;;;;;5104590;28;19926;-71
2022/08/20 11:42:47;;;;;;;5.82;3.05;;;26.20;66.00;;;;;;5095551;28;20497;-71
2022/08/20 11:45:15;;;;;;;4.70;2.47;;;26.00;65.40;;;;;;5104761;28;20100;-71
2022/08/20 11:47:43;;;;;;;9.30;2.92;;;25.90;70.00;;;;;;5106127;28;20388;-71
2022/08/20 11:50:14;;;;;;;8.38;2.97;;;25.80;73.20;;;;;;5099204;28;20844;-71
2022/08/20 11:52:40;;;;;;;6.65;3.13;;;25.80;69.50;;;;;;5090036;28;20048;-71
2022/08/20 11:55:09;;;;;;;3.50;2.67;;;25.60;67.90;;;;;;5096120;27;20462;-71
2022/08/20 11:57:37;;;;;;;12.88;3.15;;;25.60;68.30;;;;;;5093068;28;20047;-72
2022/08/20 12:00:11;;;;;;;8.10;3.67;;;25.60;70.60;;;;;;5098911;28;20063;-71
2022/08/20 12:02:36;;;;;;;7.80;4.10;;;25.60;65.00;;;;;;5105979;28;20454;-71
2022/08/20 12:05:03;;;;;;;5.13;3.80;;;25.60;62.60;;;;;;5099250;28;20039;-71
2022/08/20 12:07:28;;;;;;;14.90;3.88;;;25.60;61.30;;;;;;5101312;28;20051;-72
2022/08/20 12:09:55;;;;;;;12.30;5.25;;;25.80;60.50;;;;;;5073175;28;20057;-71
2022/08/20 12:12:23;;;;;;;15.27;4.00;;;25.80;60.00;;;;;;5081994;28;20404;-71
2022/08/20 12:14:50;;;;;;;6.43;3.70;;;26.10;59.70;;;;;;5102486;28;20497;-71
2022/08/20 12:17:22;;;;;;;7.18;4.15;;;26.20;61.50;;;;;;5081642;28;20096;-72
2022/08/20 12:19:49;;;;;;;5.25;3.92;;;26.20;59.40;;;;;;5077652;28;20092;-72
2022/08/20 12:22:15;;;;;;;13.73;3.67;;;26.30;58.60;;;;;;5088468;28;20057;-71
2022/08/20 12:24:42;;;;;;;6.18;3.70;;;26.30;57.80;;;;;;5106411;28;20131;-71
2022/08/20 12:27:14;;;;;;;7.32;3.95;;;26.40;57.60;;;;;;5098368;28;20051;-72
2022/08/20 12:29:42;;;;;;;8.00;4.28;;;26.40;55.60;;;;;;5093975;28;20051;-71
2022/08/20 12:32:08;;;;;;;6.78;3.50;;;26.50;57.00;;;;;;5104058;28;20055;-71
2022/08/20 12:34:39;;;;;;;4.85;3.20;;;26.50;56.90;;;;;;5100262;28;20372;-71
2022/08/20 12:37:09;;;;;;;12.90;3.95;;;26.70;58.50;;;;;;5089483;28;20050;-73
2022/08/20 12:39:39;;;;;;;4.07;3.10;;;26.60;58.60;;;;;;5101930;28;20130;-72
2022/08/20 12:42:05;;;;;;;13.27;4.75;;;26.40;57.90;;;;;;5101945;28;20131;-72
2022/08/20 12:44:31;;;;;;;6.15;4.18;;;26.30;57.50;;;;;;5090131;28;20052;-73
2022/08/20 12:47:17;;;;;;;4.55;3.13;;;26.00;57.10;;;;;;5078068;28;20035;-73
2022/08/20 12:49:48;;;;;;;6.05;4.40;;;26.20;59.50;;;;;;5105307;28;20063;-73